This is the latest recevied weather packets stored in our database for station/object VE6CPK-13. If no packets are shown the sender has not sent any weather packets the latest 10 day(s).
| Time | Temp. | Humidity | Pressure | Rain* | Wind** | Luminosity | Snow |
|---|---|---|---|---|---|---|---|
| 1777334978 | 7.22° C | 42% | 1012.2 hPa | 0 mm | - | - | - |
| 1777334678 | 7.22° C | 42% | 1012.2 hPa | 0 mm | - | - | - |
| 1777332877 | 7.22° C | 42% | 1012.3 hPa | 0 mm | - | - | - |
| 1777332279 | 7.78° C | 42% | 1012.4 hPa | 0 mm | - | - | - |
| 1777331979 | 7.78° C | 41% | 1012.4 hPa | 0 mm | - | - | - |
| 1777328378 | 7.78° C | 40% | 1012.7 hPa | 0 mm | - | - | - |
| 1777313077 | 3.33° C | 59% | 1014.6 hPa | 0.25 mm | - | - | - |
| 1777312777 | 2.78° C | 59% | 1014.6 hPa | 0.25 mm | - | - | - |
| 1777311878 | 2.78° C | 59% | 1014.7 hPa | 0.25 mm | - | - | - |
| 1777311576 | 2.22° C | 60% | 1014.8 hPa | 0.25 mm | - | - | - |
| 1777311282 | 2.22° C | 60% | 1014.7 hPa | 0 mm | - | - | - |
| 1777310981 | 1.67° C | 59% | 1014.8 hPa | 0 mm | - | - | - |
| 1777310382 | 1.67° C | 59% | 1014.8 hPa | 0 mm | - | - | - |
| 1777307682 | 0° C | 63% | 1015.5 hPa | 0 mm | - | - | - |
| 1777306481 | -1.11° C | 66% | 1015.4 hPa | 0 mm | - | - | - |
| 1777305880 | -1.67° C | 67% | 1015.6 hPa | 0 mm | - | - | - |
| 1777305581 | -1.67° C | 69% | 1015.7 hPa | 0 mm | - | - | - |
| 1777305281 | -1.67° C | 68% | 1015.6 hPa | 0 mm | - | - | - |
| 1777304681 | -2.22° C | 71% | 1015.6 hPa | 0 mm | - | - | - |
| 1777304380 | -2.22° C | 71% | 1015.7 hPa | 0 mm | - | - | - |
| 1777304082 | -2.22° C | 72% | 1015.7 hPa | 0 mm | - | - | - |
| 1777303781 | -2.78° C | 72% | 1015.7 hPa | 0 mm | - | - | - |
| 1777303481 | -2.78° C | 73% | 1015.8 hPa | 0 mm | - | - | - |
| 1777303181 | -2.78° C | 74% | 1015.9 hPa | 0 mm | - | - | - |
| 1777302881 | -2.78° C | 74% | 1015.9 hPa | 0 mm | - | - | - |
* Rain latest hour (hover to see other rain measurements)
** Current wind speed in m/s (hover to see current wind gust speed)